Time;durP1;ratioP1;P1;durP2;ratioP2;P2;SDS_P1;SDS_P2;PMS_P1;PMS_P2;Temp;Humidity;BMP_temperature;BMP_pressure;BME280_temperature;BME280_humidity;BME280_pressure;Samples;Min_cycle;Max_cycle;Signal;HPM_P1;HPM_P2
2023/01/29 00:00:17;;;;;;;43.03;28.53;;;;;;;-4.95;100.00;102215.53;700452;28;1440;-61
2023/01/29 00:00:38;;;;;;;41.83;28.30;;;;;;;-4.93;100.00;102219.09;696807;28;4497;-60
2023/01/29 00:01:03;;;;;;;41.40;28.80;;;;;;;-4.89;100.00;102212.59;694469;28;1765;-58
2023/01/29 00:01:23;;;;;;;41.70;28.88;;;;;;;-4.86;100.00;102217.94;694872;28;975;-60
2023/01/29 00:01:44;;;;;;;40.90;28.27;;;;;;;-4.86;100.00;102216.31;693511;28;1283;-59
2023/01/29 00:02:04;;;;;;;40.67;28.15;;;;;;;-4.86;100.00;102216.31;694835;28;1675;-60
2023/01/29 00:02:25;;;;;;;42.53;28.37;;;;;;;-4.86;100.00;102217.94;691866;28;1770;-61
2023/01/29 00:02:45;;;;;;;42.72;28.70;;;;;;;-4.82;100.00;102212.31;692286;28;975;-60
2023/01/29 00:03:05;;;;;;;41.20;28.17;;;;;;;-4.71;100.00;102220.88;691370;28;2123;-61
2023/01/29 00:03:26;;;;;;;41.33;27.92;;;;;;;-4.68;100.00;102213.47;691828;28;1787;-61
2023/01/29 00:03:49;;;;;;;41.97;28.07;;;;;;;-4.66;100.00;102211.94;692039;28;4513;-59
2023/01/29 00:04:10;;;;;;;43.08;28.85;;;;;;;-4.67;100.00;102220.34;691900;28;1427;-60
2023/01/29 00:04:31;;;;;;;42.60;29.00;;;;;;;-4.70;100.00;102221.00;695107;28;1673;-59
2023/01/29 00:04:52;;;;;;;41.53;28.42;;;;;;;-4.68;100.00;102219.47;694885;28;2220;-60
2023/01/29 00:05:12;;;;;;;43.03;28.80;;;;;;;-4.67;100.00;102213.56;696672;28;1429;-58
2023/01/29 00:05:34;;;;;;;43.30;29.23;;;;;;;-4.69;100.00;102217.69;697637;28;1149;-61
2023/01/29 00:05:54;;;;;;;43.47;29.38;;;;;;;-4.69;100.00;102214.25;698295;28;2203;-59
2023/01/29 00:06:14;;;;;;;45.92;29.65;;;;;;;-4.71;100.00;102220.88;694003;28;2258;-58
2023/01/29 00:06:35;;;;;;;41.07;27.37;;;;;;;-4.71;100.00;102218.31;695909;28;2234;-60
2023/01/29 00:06:55;;;;;;;42.85;27.52;;;;;;;-4.72;100.00;102211.41;696232;28;4352;-62
2023/01/29 00:07:15;;;;;;;42.63;27.67;;;;;;;-4.74;100.00;102212.97;697665;28;2072;-60
2023/01/29 00:07:36;;;;;;;41.60;28.35;;;;;;;-4.78;100.00;102216.91;697774;28;1598;-61
2023/01/29 00:07:56;;;;;;;42.20;29.27;;;;;;;-4.84;100.00;102219.84;696784;28;2297;-59
2023/01/29 00:08:16;;;;;;;41.77;28.70;;;;;;;-4.88;100.00;102215.25;700322;28;1830;-59
2023/01/29 00:08:37;;;;;;;42.43;27.97;;;;;;;-4.89;100.00;102212.59;699757;28;1657;-59
2023/01/29 00:08:58;;;;;;;42.58;28.67;;;;;;;-4.90;100.00;102209.16;696855;28;1058;-60
2023/01/29 00:09:18;;;;;;;42.43;28.33;;;;;;;-4.89;100.00;102208.38;694961;28;2137;-61
2023/01/29 00:09:39;;;;;;;41.58;28.58;;;;;;;-4.91;100.00;102209.03;694022;28;4549;-61
2023/01/29 00:09:59;;;;;;;43.73;29.33;;;;;;;-4.89;100.00;102207.50;694945;28;929;-59
2023/01/29 00:10:19;;;;;;;42.80;28.98;;;;;;;-4.88;100.00;102204.19;695325;28;964;-59
2023/01/29 00:10:40;;;;;;;42.30;28.83;;;;;;;-4.86;100.00;102205.19;694303;28;2029;-61
2023/01/29 00:11:01;;;;;;;42.83;28.70;;;;;;;-4.86;100.00;102207.72;697695;28;1909;-60
2023/01/29 00:11:24;;;;;;;42.00;28.65;;;;;;;-4.84;100.00;102206.22;700366;28;1609;-60
2023/01/29 00:11:44;;;;;;;41.63;28.10;;;;;;;-4.83;100.00;102201.25;700512;28;2180;-60
2023/01/29 00:12:08;;;;;;;43.30;28.83;;;;;;;-4.81;100.00;102207.34;698722;28;1066;-60
2023/01/29 00:12:28;;;;;;;43.92;28.77;;;;;;;-4.75;100.00;102203.53;698674;28;2096;-60
2023/01/29 00:12:50;;;;;;;43.80;29.10;;;;;;;-4.73;100.00;102209.66;696904;28;4462;-62
2023/01/29 00:13:10;;;;;;;45.78;29.40;;;;;;;-4.75;100.00;102198.41;697888;28;1179;-62
2023/01/29 00:13:31;;;;;;;42.43;29.30;;;;;;;-4.76;100.00;102204.28;697910;28;1556;-60
2023/01/29 00:13:52;;;;;;;41.03;28.65;;;;;;;-4.75;100.00;102206.06;700375;28;898;-60
2023/01/29 00:14:13;;;;;;;42.15;28.67;;;;;;;-4.74;100.00;102205.31;697085;28;1309;-60
2023/01/29 00:14:33;;;;;;;43.83;29.40;;;;;;;-4.75;100.00;102204.41;693473;28;2382;-60
2023/01/29 00:14:54;;;;;;;42.60;29.08;;;;;;;-4.74;100.00;102207.88;693600;28;2240;-60
2023/01/29 00:15:14;;;;;;;42.00;28.20;;;;;;;-4.75;100.00;102206.06;692478;28;1373;-60
2023/01/29 00:15:35;;;;;;;42.70;28.57;;;;;;;-4.74;100.00;102206.19;693405;28;844;-61
2023/01/29 00:15:57;;;;;;;43.60;28.90;;;;;;;-4.74;100.00;102203.66;693537;28;4876;-60
2023/01/29 00:16:18;;;;;;;42.75;28.67;;;;;;;-4.71;100.00;102203.00;696318;28;1397;-59
2023/01/29 00:16:38;;;;;;;43.60;29.27;;;;;;;-4.68;100.00;102205.81;700469;28;1248;-61
2023/01/29 00:16:59;;;;;;;43.57;28.67;;;;;;;-4.69;100.00;102198.94;698329;28;2500;-59
2023/01/29 00:17:19;;;;;;;43.83;28.67;;;;;;;-4.70;100.00;102198.03;696299;28;2358;-60
2023/01/29 00:17:39;;;;;;;42.33;28.70;;;;;;;-4.70;100.00;102215.00;695450;28;1558;-59
2023/01/29 00:18:00;;;;;;;43.37;29.20;;;;;;;-4.73;100.00;102207.97;694699;28;1037;-60
2023/01/29 00:18:20;;;;;;;42.93;28.90;;;;;;;-4.77;100.00;102195.75;695675;28;969;-60
2023/01/29 00:18:41;;;;;;;42.47;28.43;;;;;;;-4.76;100.00;102214.47;696159;28;4304;-60
2023/01/29 00:19:02;;;;;;;41.40;28.38;;;;;;;-4.74;100.00;102202.75;696705;28;2191;-60
2023/01/29 00:19:22;;;;;;;42.47;28.42;;;;;;;-4.73;100.00;102200.34;697696;28;1433;-59
2023/01/29 00:19:42;;;;;;;41.77;28.40;;;;;;;-4.75;100.00;102201.84;697485;28;1464;-62
2023/01/29 00:20:03;;;;;;;41.03;27.45;;;;;;;-4.74;100.00;102203.66;696691;28;3797;-60
2023/01/29 00:20:24;;;;;;;41.17;28.40;;;;;;;-4.73;100.00;102200.34;697129;28;2271;-60
2023/01/29 00:20:45;;;;;;;41.58;28.73;;;;;;;-4.70;100.00;102209.91;697939;28;907;-61
2023/01/29 00:21:14;;;;;;;43.85;29.08;;;;;;;-4.70;100.00;102200.56;696374;28;1609;-59
2023/01/29 00:21:34;;;;;;;41.63;27.95;;;;;;;-4.70;100.00;102204.78;699114;28;1656;-61
2023/01/29 00:21:55;;;;;;;41.47;28.25;;;;;;;-4.72;100.00;102207.22;699039;28;4600;-60
2023/01/29 00:22:15;;;;;;;41.43;27.60;;;;;;;-4.73;100.00;102202.88;699661;28;903;-59
2023/01/29 00:22:35;;;;;;;42.05;28.00;;;;;;;-4.76;100.00;102199.19;696061;28;1117;-60
2023/01/29 00:22:56;;;;;;;42.70;27.97;;;;;;;-4.77;100.00;102202.53;696576;28;2080;-60
2023/01/29 00:23:16;;;;;;;41.17;27.90;;;;;;;-4.79;100.00;102205.81;696474;28;1369;-61
2023/01/29 00:23:37;;;;;;;39.70;28.10;;;;;;;-4.81;100.00;102197.13;696615;28;1197;-62
2023/01/29 00:23:58;;;;;;;41.13;27.85;;;;;;;-4.81;100.00;102199.69;695787;28;2256;-61
2023/01/29 00:24:19;;;;;;;42.80;28.08;;;;;;;-4.79;100.00;102204.91;696840;28;1779;-60
2023/01/29 00:24:39;;;;;;;40.97;26.98;;;;;;;-4.80;100.00;102204.03;700166;28;4296;-60
2023/01/29 00:24:59;;;;;;;42.70;27.63;;;;;;;-4.79;100.00;102200.72;699782;28;2390;-59
2023/01/29 00:25:19;;;;;;;43.33;28.40;;;;;;;-4.79;100.00;102200.72;699683;28;1615;-61
2023/01/29 00:25:41;;;;;;;43.45;28.52;;;;;;;-4.81;100.00;102202.25;697983;28;952;-60
2023/01/29 00:26:01;;;;;;;44.38;29.10;;;;;;;-4.84;100.00;102196.91;697323;28;1386;-60
2023/01/29 00:26:21;;;;;;;43.97;29.17;;;;;;;-4.84;100.00;102193.47;697958;28;851;-60
2023/01/29 00:26:42;;;;;;;42.07;27.90;;;;;;;-4.84;100.00;102196.00;694748;28;1255;-60
2023/01/29 00:27:03;;;;;;;40.47;28.10;;;;;;;-4.86;100.00;102195.88;693810;28;1996;-61
2023/01/29 00:27:23;;;;;;;40.57;28.53;;;;;;;-4.86;100.00;102192.44;691949;28;1597;-60
2023/01/29 00:27:43;;;;;;;42.42;28.30;;;;;;;-4.87;100.00;102196.66;691094;28;4389;-60
2023/01/29 00:28:04;;;;;;;42.80;28.57;;;;;;;-4.88;100.00;102193.97;689853;28;1169;-60
2023/01/29 00:28:24;;;;;;;41.25;28.55;;;;;;;-4.88;100.00;102188.88;688415;28;1438;-60
2023/01/29 00:28:45;;;;;;;41.20;28.37;;;;;;;-4.89;100.00;102193.06;691543;28;2049;-59
2023/01/29 00:29:05;;;;;;;40.33;28.63;;;;;;;-4.89;100.00;102194.72;692988;28;968;-60
2023/01/29 00:29:26;;;;;;;42.83;28.80;;;;;;;-4.88;100.00;102194.84;694540;28;940;-59
2023/01/29 00:30:07;;;;;;;41.67;28.48;;;;;;;-4.88;100.00;102187.19;695000;28;1762;-59
2023/01/29 00:30:26;;;;;;;42.30;28.55;;;;;;;-4.91;100.00;102189.50;693548;28;2212;-61
2023/01/29 00:30:47;;;;;;;41.27;28.70;;;;;;;-4.89;100.00;102187.97;692550;28;4363;-61
2023/01/29 00:31:13;;;;;;;42.43;28.77;;;;;;;-4.87;100.00;102189.00;694573;28;2035;-59
2023/01/29 00:31:33;;;;;;;40.70;27.83;;;;;;;-4.88;100.00;102183.78;695097;28;1031;-60
2023/01/29 00:31:54;;;;;;;41.08;27.88;;;;;;;-4.89;100.00;102182.84;695857;28;995;-59
2023/01/29 00:32:14;;;;;;;40.85;28.05;;;;;;;-4.87;100.00;102186.44;697329;28;2029;-58
2023/01/29 00:32:35;;;;;;;43.73;28.93;;;;;;;-4.86;100.00;102189.88;700628;28;1593;-60
2023/01/29 00:32:56;;;;;;;42.33;27.95;;;;;;;-4.88;100.00;102187.19;696799;28;1186;-61
2023/01/29 00:33:16;;;;;;;40.97;27.73;;;;;;;-4.87;100.00;102181.34;694586;28;1644;-61
2023/01/29 00:33:37;;;;;;;41.13;28.40;;;;;;;-4.89;100.00;102184.53;693333;28;4469;-60
2023/01/29 00:33:57;;;;;;;43.27;28.87;;;;;;;-4.89;100.00;102184.53;694700;28;951;-60
2023/01/29 00:34:17;;;;;;;42.73;28.40;;;;;;;-4.92;100.00;102181.72;694678;28;1538;-60
2023/01/29 00:34:38;;;;;;;41.55;28.05;;;;;;;-4.98;100.00;102183.00;694689;28;961;-60
2023/01/29 00:34:58;;;;;;;41.80;28.30;;;;;;;-5.00;100.00;102188.75;695696;28;1102;-60
2023/01/29 00:35:18;;;;;;;43.28;29.05;;;;;;;-5.04;100.00;102184.16;697112;28;2277;-61
2023/01/29 00:35:40;;;;;;;42.90;29.13;;;;;;;-5.07;100.00;102183.91;697961;28;1477;-60
2023/01/29 00:36:03;;;;;;;43.63;28.73;;;;;;;-5.08;100.00;102182.09;698257;28;2060;-60
2023/01/29 00:36:25;;;;;;;43.15;29.08;;;;;;;-5.10;100.00;102181.09;694756;28;2034;-60
2023/01/29 00:36:45;;;;;;;41.85;27.10;;;;;;;-5.09;100.00;102185.44;691405;28;4437;-60
2023/01/29 00:37:07;;;;;;;43.17;28.65;;;;;;;-5.10;100.00;102183.66;690429;28;1762;-60
2023/01/29 00:37:28;;;;;;;43.65;29.23;;;;;;;-5.09;100.00;102180.34;687660;28;2253;-62
2023/01/29 00:37:49;;;;;;;43.67;29.42;;;;;;;-5.11;100.00;102180.19;686698;28;1316;-61
2023/01/29 00:38:09;;;;;;;41.30;28.67;;;;;;;-5.10;100.00;102181.09;686183;28;1499;-60
2023/01/29 00:38:29;;;;;;;41.87;28.50;;;;;;;-5.11;100.00;102181.88;687320;28;1028;-60
2023/01/29 00:38:57;;;;;;;43.72;29.27;;;;;;;-5.08;100.00;102177.94;689059;28;5340;-60
2023/01/29 00:39:24;;;;;;;42.60;28.75;;;;;;;-5.07;100.00;102181.34;692637;28;1685;-59
2023/01/29 00:39:44;;;;;;;42.20;28.88;;;;;;;-5.09;100.00;102181.22;696026;28;4354;-60
2023/01/29 00:40:05;;;;;;;44.03;29.10;;;;;;;-5.07;100.00;102181.34;699153;28;1068;-60
2023/01/29 00:40:26;;;;;;;42.33;29.40;;;;;;;-5.04;100.00;102177.41;697059;28;988;-61
2023/01/29 00:44:57;;;;;;;41.42;28.13;;;;;;;-4.78;100.00;102173.53;694909;28;1241;-59
2023/01/29 00:45:18;;;;;;;40.55;27.23;;;;;;;-4.81;100.00;102178.41;692559;28;2287;-60
2023/01/29 00:45:39;;;;;;;38.50;26.58;;;;;;;-4.83;100.00;102174.81;691443;28;4460;-59
2023/01/29 00:45:59;;;;;;;39.93;27.50;;;;;;;-4.84;100.00;102170.50;692838;28;1036;-60
2023/01/29 00:46:20;;;;;;;40.83;27.73;;;;;;;-4.87;100.00;102176.25;692583;28;1226;-60
2023/01/29 00:46:40;;;;;;;41.70;28.13;;;;;;;-4.90;100.00;102168.34;691872;28;1488;-61
2023/01/29 00:47:00;;;;;;;39.50;27.43;;;;;;;-4.93;100.00;102174.84;689839;28;1137;-60
2023/01/29 00:47:32;;;;;;;39.90;27.70;;;;;;;-4.94;100.00;102183.25;689881;28;2004;-61
2023/01/29 00:47:52;;;;;;;41.75;28.10;;;;;;;-4.99;100.00;102178.66;692018;28;849;-59
2023/01/29 00:48:12;;;;;;;40.75;28.13;;;;;;;-5.00;100.00;102181.09;692607;28;1400;-59
2023/01/29 00:48:34;;;;;;;40.23;28.53;;;;;;;-5.02;100.00;102177.53;692651;28;686;-60
2023/01/29 00:48:54;;;;;;;42.67;29.23;;;;;;;-5.03;100.00;102180.84;692462;28;4571;-59
2023/01/29 00:49:14;;;;;;;43.90;28.97;;;;;;;-5.04;100.00;102181.59;693043;28;1141;-61
2023/01/29 00:49:35;;;;;;;43.53;29.10;;;;;;;-5.05;100.00;102180.72;694834;28;1635;-59
2023/01/29 00:49:56;;;;;;;43.00;28.77;;;;;;;-5.05;100.00;102183.28;693302;28;1121;-61
2023/01/29 00:50:16;;;;;;;43.08;28.02;;;;;;;-5.04;100.00;102184.16;692076;28;1219;-59
2023/01/29 00:50:36;;;;;;;43.00;28.50;;;;;;;-5.04;100.00;102184.16;692463;28;2157;-62
2023/01/29 00:50:57;;;;;;;41.25;27.98;;;;;;;-5.05;100.00;102179.81;692116;28;1182;-61
2023/01/29 00:51:17;;;;;;;39.67;27.60;;;;;;;-5.03;100.00;102183.41;692148;28;967;-59
2023/01/29 00:51:38;;;;;;;39.22;27.15;;;;;;;-5.04;100.00;102179.97;690210;28;4469;-60
2023/01/29 00:52:39;;;;;;;39.92;27.20;;;;;;;-4.92;100.00;102174.97;692006;28;2565;-61
2023/01/29 00:53:00;;;;;;;41.22;28.15;;;;;;;-4.89;100.00;102179.44;694042;28;1530;-58
2023/01/29 00:53:20;;;;;;;42.75;28.58;;;;;;;-4.92;100.00;102179.19;696154;28;1287;-60
2023/01/29 00:53:40;;;;;;;42.73;29.40;;;;;;;-4.94;100.00;102179.06;696429;28;2207;-59
2023/01/29 00:54:05;;;;;;;42.65;29.27;;;;;;;-4.93;100.00;102174.84;695704;28;955;-58
2023/01/29 00:54:25;;;;;;;43.75;29.15;;;;;;;-4.97;100.00;102171.13;696163;28;974;-61
2023/01/29 00:54:46;;;;;;;43.25;28.55;;;;;;;-5.01;100.00;102174.19;695072;28;4680;-61
2023/01/29 00:55:08;;;;;;;41.80;28.67;;;;;;;-5.03;100.00;102178.28;692085;28;1331;-60
2023/01/29 00:55:29;;;;;;;42.25;28.90;;;;;;;-5.04;100.00;102177.41;692774;28;2301;-61
2023/01/29 00:55:49;;;;;;;42.17;28.07;;;;;;;-5.01;100.00;102176.75;690579;28;1697;-60
2023/01/29 00:56:09;;;;;;;41.72;27.92;;;;;;;-4.99;100.00;102172.69;687808;28;1721;-60
2023/01/29 00:56:30;;;;;;;40.73;28.10;;;;;;;-4.97;100.00;102179.69;688792;28;1437;-60
2023/01/29 00:56:50;;;;;;;41.43;28.50;;;;;;;-4.99;100.00;102176.13;688901;28;956;-60
2023/01/29 00:57:10;;;;;;;40.83;28.00;;;;;;;-4.99;100.00;102175.22;690641;28;1440;-61
2023/01/29 00:57:33;;;;;;;42.83;28.33;;;;;;;-5.00;100.00;102179.44;688806;28;1205;-60
2023/01/29 00:57:53;;;;;;;42.58;28.33;;;;;;;-4.99;100.00;102175.22;690482;28;4517;-61
2023/01/29 00:58:21;;;;;;;44.13;27.97;;;;;;;-4.98;100.00;102177.91;693067;28;1427;-61
2023/01/29 00:58:41;;;;;;;42.28;27.92;;;;;;;-4.94;100.00;102176.50;693849;28;1431;-59
2023/01/29 00:59:03;;;;;;;41.73;27.50;;;;;;;-4.92;100.00;102177.50;695353;28;1453;-61
2023/01/29 00:59:23;;;;;;;41.42;27.67;;;;;;;-4.89;100.00;102176.88;699237;28;1290;-60
2023/01/29 00:59:43;;;;;;;39.87;27.47;;;;;;;-4.80;100.00;102178.53;697356;28;1472;-61
2023/01/29 01:00:07;;;;;;;43.13;28.27;;;;;;;-4.80;100.00;102178.53;696967;28;1546;-60
2023/01/29 01:00:27;;;;;;;42.67;28.20;;;;;;;-4.81;100.00;102180.94;696285;28;2075;-60
2023/01/29 01:00:48;;;;;;;40.03;26.60;;;;;;;-4.83;100.00;102179.91;695468;28;4606;-62
2023/01/29 01:01:08;;;;;;;39.90;27.25;;;;;;;-4.84;100.00;102176.47;693168;28;1431;-60
2023/01/29 01:03:06;;;;;;;40.50;26.70;;;;;;;-4.90;100.00;102180.19;695108;28;1389;-61
2023/01/29 01:03:27;;;;;;;38.45;26.00;;;;;;;-4.91;100.00;102184.41;696128;28;1551;-61
2023/01/29 01:03:48;;;;;;;40.33;26.23;;;;;;;-4.91;100.00;102180.97;693527;28;4390;-61
2023/01/29 01:04:10;;;;;;;38.23;26.27;;;;;;;-4.90;100.00;102181.09;694051;28;1456;-61
2023/01/29 01:04:30;;;;;;;38.60;26.70;;;;;;;-4.90;100.00;102181.09;691421;28;2269;-60
2023/01/29 01:04:50;;;;;;;39.55;26.98;;;;;;;-4.92;100.00;102182.63;688900;28;2180;-60
2023/01/29 01:05:17;;;;;;;41.07;26.70;;;;;;;-4.92;100.00;102177.50;685904;28;1514;-59
2023/01/29 01:05:38;;;;;;;41.33;26.55;;;;;;;-4.92;100.00;102177.50;689856;28;1387;-61
2023/01/29 01:06:06;;;;;;;41.05;26.52;;;;;;;-4.91;100.00;102175.88;689623;28;2044;-61
2023/01/29 01:06:26;;;;;;;37.80;25.60;;;;;;;-4.92;100.00;102174.97;690380;28;1458;-60
2023/01/29 01:06:46;;;;;;;38.80;26.07;;;;;;;-4.93;100.00;102175.72;690030;28;4541;-60
2023/01/29 01:07:07;;;;;;;40.17;26.53;;;;;;;-4.93;100.00;102174.84;692134;28;1985;-60
2023/01/29 01:07:29;;;;;;;40.47;26.97;;;;;;;-4.94;100.00;102178.16;692727;28;1964;-59
2023/01/29 01:07:51;;;;;;;38.83;26.02;;;;;;;-4.96;100.00;102176.38;693764;28;2042;-60
2023/01/29 01:10:23;;;;;;;38.35;25.88;;;;;;;-4.99;100.00;102175.22;692949;28;6155;-60
2023/01/29 01:10:43;;;;;;;38.50;25.30;;;;;;;-4.98;100.00;102183.00;695104;28;1854;-61
2023/01/29 01:11:05;;;;;;;38.03;25.70;;;;;;;-4.96;100.00;102172.91;696374;28;2080;-60
2023/01/29 01:11:26;;;;;;;39.35;26.73;;;;;;;-4.95;100.00;102182.38;696230;28;1711;-61
2023/01/29 01:11:46;;;;;;;38.90;26.40;;;;;;;-4.93;100.00;102180.81;695953;28;1318;-61
2023/01/29 01:12:06;;;;;;;37.78;25.83;;;;;;;-4.92;100.00;102180.06;694113;28;1933;-62
2023/01/29 01:12:27;;;;;;;38.67;25.93;;;;;;;-4.92;100.00;102174.97;694218;28;1967;-60
2023/01/29 01:12:55;;;;;;;38.65;25.40;;;;;;;-4.92;100.00;102181.72;693265;28;4288;-61
2023/01/29 01:13:15;;;;;;;39.90;26.40;;;;;;;-4.97;100.00;102176.22;694018;28;1502;-60
2023/01/29 01:13:36;;;;;;;38.97;25.93;;;;;;;-4.97;100.00;102179.69;696781;28;2038;-58
2023/01/29 01:14:00;;;;;;;38.97;26.27;;;;;;;-4.98;100.00;102174.47;695893;28;2124;-61
2023/01/29 01:14:21;;;;;;;39.53;25.83;;;;;;;-4.93;100.00;102177.38;696670;28;1774;-60
2023/01/29 01:14:42;;;;;;;39.80;26.15;;;;;;;-4.88;100.00;102174.44;696908;28;2018;-59
2023/01/29 01:15:03;;;;;;;38.65;25.70;;;;;;;-4.82;100.00;102172.41;691260;28;1441;-60
2023/01/29 01:15:26;;;;;;;37.88;25.70;;;;;;;-4.74;100.00;102177.25;691589;28;1384;-59
2023/01/29 01:15:46;;;;;;;38.30;25.70;;;;;;;-4.76;100.00;102177.13;691749;28;4253;-61
2023/01/29 01:16:15;;;;;;;38.30;26.08;;;;;;;-4.79;100.00;102172.66;692782;28;1531;-61
2023/01/29 01:16:36;;;;;;;38.67;25.58;;;;;;;-4.80;100.00;102182.75;689065;28;4039;-58
2023/01/29 01:16:57;;;;;;;40.43;26.43;;;;;;;-4.86;100.00;102178.03;693508;28;1773;-61
2023/01/29 01:17:17;;;;;;;40.90;26.55;;;;;;;-4.89;100.00;102172.66;696229;28;1440;-60
2023/01/29 01:17:37;;;;;;;39.88;26.35;;;;;;;-4.89;100.00;102174.31;695266;28;2094;-60
2023/01/29 01:17:59;;;;;;;39.70;26.17;;;;;;;-4.92;100.00;102171.53;696372;28;1508;-61
2023/01/29 01:18:21;;;;;;;38.83;25.20;;;;;;;-4.94;100.00;102173.03;693838;28;2056;-60
2023/01/29 01:18:42;;;;;;;38.50;25.63;;;;;;;-4.95;100.00;102167.06;693445;28;4540;-60
2023/01/29 01:19:03;;;;;;;38.70;25.25;;;;;;;-4.89;100.00;102167.56;692906;28;1981;-60
2023/01/29 01:19:23;;;;;;;38.25;25.30;;;;;;;-4.81;100.00;102174.19;693300;28;1299;-60
2023/01/29 01:19:44;;;;;;;38.90;25.50;;;;;;;-4.79;100.00;102170.09;690601;28;1487;-59
2023/01/29 01:20:05;;;;;;;40.07;26.10;;;;;;;-4.82;100.00;102174.97;689245;28;1515;-60
2023/01/29 01:20:29;;;;;;;39.83;26.63;;;;;;;-4.82;100.00;102171.50;689019;28;2082;-60
2023/01/29 01:20:56;;;;;;;37.85;26.67;;;;;;;-4.79;100.00;102177.75;691605;28;1718;-58
2023/01/29 01:21:17;;;;;;;41.30;26.75;;;;;;;-4.67;100.00;102176.97;687608;28;2155;-62
2023/01/29 01:21:37;;;;;;;38.90;25.93;;;;;;;-4.65;100.00;102176.31;688796;28;5279;-60
2023/01/29 01:21:57;;;;;;;37.13;25.45;;;;;;;-4.70;100.00;102180.16;692488;28;1475;-58
2023/01/29 01:22:18;;;;;;;39.47;25.83;;;;;;;-4.71;100.00;102170.72;696010;28;1378;-60
2023/01/29 01:22:38;;;;;;;40.63;26.15;;;;;;;-4.72;100.00;102186.81;697162;28;1551;-59
2023/01/29 01:22:59;;;;;;;38.27;26.13;;;;;;;-4.80;100.00;102175.97;693755;28;1486;-60
2023/01/29 01:23:19;;;;;;;37.38;25.98;;;;;;;-4.82;100.00;102181.72;697248;28;1484;-60
2023/01/29 01:23:39;;;;;;;38.93;26.40;;;;;;;-4.86;100.00;102178.03;695916;28;1701;-60
2023/01/29 01:24:00;;;;;;;39.40;26.85;;;;;;;-4.91;100.00;102176.75;695404;28;1437;-59
2023/01/29 01:24:22;;;;;;;40.28;25.58;;;;;;;-4.90;100.00;102176.00;696635;28;1977;-60
2023/01/29 01:24:42;;;;;;;38.92;25.33;;;;;;;-4.93;100.00;102170.63;696620;28;4509;-61
2023/01/29 01:25:03;;;;;;;37.45;24.85;;;;;;;-4.98;100.00;102188.09;695400;28;1541;-58
2023/01/29 01:25:24;;;;;;;38.27;25.10;;;;;;;-5.01;100.00;102177.66;696062;28;1322;-59
2023/01/29 01:25:45;;;;;;;39.67;26.25;;;;;;;-5.00;100.00;102181.09;696108;28;2429;-60
2023/01/29 01:26:09;;;;;;;39.38;26.25;;;;;;;-5.02;100.00;102183.53;695967;28;1577;-59
2023/01/29 01:26:31;;;;;;;37.28;25.83;;;;;;;-5.01;100.00;102181.84;696909;28;2074;-60
2023/01/29 01:26:51;;;;;;;38.13;25.35;;;;;;;-5.00;100.00;102178.53;695673;28;1253;-61
2023/01/29 01:27:13;;;;;;;40.28;26.25;;;;;;;-4.92;100.00;102181.72;696138;28;1975;-61
2023/01/29 01:27:33;;;;;;;38.72;26.15;;;;;;;-4.84;100.00;102184.13;696691;28;1313;-61
2023/01/29 01:27:55;;;;;;;37.30;25.63;;;;;;;-4.79;100.00;102180.31;696176;28;4362;-59
2023/01/29 01:28:16;;;;;;;38.13;25.65;;;;;;;-4.69;100.00;102184.50;697132;28;1266;-61
2023/01/29 01:28:38;;;;;;;38.08;25.50;;;;;;;-4.74;100.00;102177.25;694523;28;2035;-60
2023/01/29 01:28:59;;;;;;;39.08;25.13;;;;;;;-4.76;100.00;102181.31;690239;28;2058;-60
2023/01/29 01:29:19;;;;;;;38.73;25.17;;;;;;;-4.81;100.00;102179.28;691177;28;1522;-59
2023/01/29 01:29:40;;;;;;;39.55;25.35;;;;;;;-4.79;100.00;102177.75;691327;28;1315;-59
2023/01/29 01:30:00;;;;;;;38.80;25.47;;;;;;;-4.80;100.00;102188.72;689719;28;2101;-60
2023/01/29 01:30:21;;;;;;;36.08;24.40;;;;;;;-4.82;100.00;102185.16;691404;28;1256;-61
2023/01/29 01:30:41;;;;;;;35.95;24.67;;;;;;;-4.79;100.00;102187.97;693833;28;4458;-60
2023/01/29 01:31:11;;;;;;;36.63;25.00;;;;;;;-4.78;100.00;102186.28;692979;28;1499;-59
2023/01/29 01:31:31;;;;;;;38.38;25.25;;;;;;;-4.80;100.00;102183.63;694387;28;1412;-61
2023/01/29 01:31:54;;;;;;;37.90;25.30;;;;;;;-4.80;100.00;102183.63;698055;28;2277;-60
2023/01/29 01:32:15;;;;;;;37.63;25.35;;;;;;;-4.81;100.00;102191.16;699831;28;1269;-61
2023/01/29 01:32:37;;;;;;;37.97;25.55;;;;;;;-4.87;100.00;102186.44;700172;28;1341;-60
2023/01/29 01:32:57;;;;;;;37.35;25.08;;;;;;;-4.90;100.00;102192.94;700253;28;1416;-60
2023/01/29 01:33:18;;;;;;;36.85;24.83;;;;;;;-4.93;100.00;102196.13;699951;28;1369;-60
2023/01/29 01:33:39;;;;;;;38.33;25.67;;;;;;;-4.88;100.00;102183.78;693700;28;4352;-59
2023/01/29 01:33:59;;;;;;;38.45;25.67;;;;;;;-4.82;100.00;102189.38;694127;28;1438;-60
2023/01/29 01:34:21;;;;;;;37.87;25.37;;;;;;;-4.78;100.00;102191.41;691593;28;1084;-59
2023/01/29 01:34:41;;;;;;;36.45;24.83;;;;;;;-4.70;100.00;102197.16;691773;28;1096;-59
2023/01/29 01:35:02;;;;;;;36.47;25.02;;;;;;;-4.60;100.00;102191.13;688845;28;2271;-61
2023/01/29 01:35:22;;;;;;;35.72;24.58;;;;;;;-4.63;100.00;102187.53;689874;28;1176;-60
2023/01/29 01:35:42;;;;;;;36.10;24.30;;;;;;;-4.65;100.00;102180.56;693178;28;1464;-59
2023/01/29 01:36:04;;;;;;;36.38;23.60;;;;;;;-4.68;100.00;102187.94;693309;28;1228;-60
2023/01/29 01:36:24;;;;;;;36.40;24.15;;;;;;;-4.72;100.00;102185.91;694676;28;1393;-61
2023/01/29 01:36:45;;;;;;;37.03;24.85;;;;;;;-4.79;100.00;102185.41;693861;28;4612;-61
2023/01/29 01:37:05;;;;;;;37.23;25.10;;;;;;;-4.83;100.00;102188.47;694502;28;1549;-60
2023/01/29 01:37:25;;;;;;;37.00;24.58;;;;;;;-4.85;100.00;102189.13;697290;28;1234;-59
2023/01/29 01:37:46;;;;;;;37.30;24.57;;;;;;;-4.84;100.00;102189.25;696840;28;1530;-59
2023/01/29 01:38:06;;;;;;;37.13;24.70;;;;;;;-4.84;100.00;102186.69;694092;28;1614;-60
2023/01/29 01:38:27;;;;;;;35.80;24.67;;;;;;;-4.88;100.00;102186.31;694604;28;1523;-61
2023/01/29 01:38:48;;;;;;;36.35;24.90;;;;;;;-4.90;100.00;102185.28;689395;28;5217;-61
2023/01/29 01:39:08;;;;;;;38.30;25.33;;;;;;;-4.92;100.00;102182.63;690833;28;2111;-60
2023/01/29 01:39:29;;;;;;;39.07;25.07;;;;;;;-4.92;100.00;102186.84;689423;28;1586;-60
2023/01/29 01:39:50;;;;;;;37.35;23.92;;;;;;;-4.94;100.00;102183.25;688818;28;4349;-60
2023/01/29 01:40:16;;;;;;;38.05;24.10;;;;;;;-4.96;100.00;102185.69;692931;28;1551;-61
2023/01/29 01:40:43;;;;;;;38.17;25.05;;;;;;;-4.97;100.00;102187.34;689871;28;2250;-60
2023/01/29 01:41:04;;;;;;;37.00;24.15;;;;;;;-5.00;100.00;102181.09;688741;28;2129;-59
2023/01/29 01:41:24;;;;;;;37.43;24.43;;;;;;;-4.96;100.00;102171.28;689220;28;1366;-60
2023/01/29 01:41:45;;;;;;;36.58;24.25;;;;;;;-4.94;100.00;102190.91;686733;28;1412;-61
2023/01/29 01:42:11;;;;;;;36.90;24.23;;;;;;;-4.93;100.00;102174.84;687706;28;1185;-61
2023/01/29 01:42:32;;;;;;;36.28;24.23;;;;;;;-4.93;100.00;102180.81;688150;28;1200;-59
2023/01/29 01:42:55;;;;;;;37.40;24.73;;;;;;;-4.96;100.00;102180.56;688347;28;4335;-58
2023/01/29 01:43:15;;;;;;;37.65;25.48;;;;;;;-4.91;100.00;102178.44;690372;28;1178;-61
2023/01/29 01:44:05;;;;;;;36.83;24.80;;;;;;;-4.84;100.00;102184.13;690151;28;1334;-60
2023/01/29 01:44:55;;;;;;;36.85;24.33;;;;;;;-4.91;100.00;102181.84;679565;28;1406;-60
2023/01/29 01:45:21;;;;;;;38.45;24.38;;;;;;;-4.98;100.00;102182.13;688328;28;1471;-59
2023/01/29 01:45:45;;;;;;;37.13;24.42;;;;;;;-4.99;100.00;102177.78;690505;28;4499;-59
2023/01/29 01:46:08;;;;;;;36.47;24.10;;;;;;;-4.94;100.00;102176.50;692062;28;1160;-60
2023/01/29 01:46:34;;;;;;;35.97;24.13;;;;;;;-4.98;100.00;102174.47;694104;28;1358;-60
2023/01/29 01:46:55;;;;;;;36.28;24.20;;;;;;;-5.02;100.00;102177.53;693959;28;1215;-61
2023/01/29 01:47:17;;;;;;;38.35;24.33;;;;;;;-5.04;100.00;102179.06;694307;28;1918;-58
2023/01/29 01:47:45;;;;;;;35.78;24.20;;;;;;;-5.00;100.00;102178.53;693660;28;1851;-61